Time;durP1;ratioP1;P1;durP2;ratioP2;P2;SDS_P1;SDS_P2;PMS_P1;PMS_P2;Temp;Humidity;BMP_temperature;BMP_pressure;BME280_temperature;BME280_humidity;BME280_pressure;Samples;Min_cycle;Max_cycle;Signal;HPM_P1;HPM_P2
2021/08/06 00:00:27;;;;;;;6.95;4.30;;;;;;;19.91;68.50;100151.59;5032043;28;20403;-60
2021/08/06 00:02:54;;;;;;;8.10;4.80;;;;;;;19.89;68.48;100148.38;5032085;28;20050;-59
2021/08/06 00:05:22;;;;;;;8.10;5.03;;;;;;;19.88;68.42;100139.28;5031680;28;20104;-59
2021/08/06 00:07:50;;;;;;;6.70;4.20;;;;;;;19.92;68.26;100134.66;5032176;28;20095;-60
2021/08/06 00:10:18;;;;;;;10.55;5.78;;;;;;;19.95;68.18;100133.97;5031794;28;20045;-59
2021/08/06 00:12:45;;;;;;;9.10;5.25;;;;;;;19.96;68.24;100135.59;5032342;28;20042;-59
2021/08/06 00:15:14;;;;;;;8.13;4.65;;;;;;;19.99;68.13;100134.09;5031957;28;20056;-58
2021/08/06 00:17:42;;;;;;;7.45;4.40;;;;;;;20.02;68.03;100132.59;5032285;28;20048;-59
2021/08/06 00:20:11;;;;;;;8.38;4.72;;;;;;;19.97;67.98;100133.63;5031960;28;20037;-58
2021/08/06 00:22:39;;;;;;;7.60;4.10;;;;;;;19.91;68.25;100126.72;5031785;28;20050;-57
2021/08/06 00:25:07;;;;;;;9.00;4.25;;;;;;;19.88;68.20;100122.69;5032120;28;20037;-59
2021/08/06 00:27:34;;;;;;;8.60;4.20;;;;;;;19.89;68.41;100117.94;5031791;28;20052;-57
2021/08/06 00:30:03;;;;;;;9.65;4.90;;;;;;;19.94;68.24;100121.31;5031806;28;20049;-59
2021/08/06 00:32:30;;;;;;;7.65;5.10;;;;;;;19.97;68.15;100122.56;5031749;28;20124;-57
2021/08/06 00:35:03;;;;;;;7.00;4.50;;;;;;;19.98;68.14;100127.72;5030235;28;20121;-58
2021/08/06 00:37:31;;;;;;;8.45;4.30;;;;;;;20.00;68.21;100125.41;5030314;28;20124;-59
2021/08/06 00:40:02;;;;;;;9.13;4.90;;;;;;;19.99;68.61;100123.03;5030673;28;20038;-59
2021/08/06 00:42:33;;;;;;;8.05;4.68;;;;;;;19.98;69.08;100121.41;5044811;28;20048;-58
2021/08/06 00:45:03;;;;;;;10.27;4.25;;;;;;;19.94;69.43;100117.72;5030879;28;20042;-58
2021/08/06 00:47:31;;;;;;;8.35;4.80;;;;;;;19.86;69.65;100113.94;5031879;28;20080;-57
2021/08/06 00:49:59;;;;;;;9.43;4.60;;;;;;;19.80;70.12;100109.81;5018962;28;20103;-58
2021/08/06 00:52:28;;;;;;;9.48;4.57;;;;;;;19.76;70.32;100109.69;5030623;28;20445;-58
2021/08/06 00:54:56;;;;;;;8.98;4.55;;;;;;;19.76;70.51;100109.69;5030388;28;20416;-57
2021/08/06 00:57:27;;;;;;;8.07;4.80;;;;;;;19.74;70.24;100108.41;5044339;28;20045;-59
2021/08/06 01:00:05;;;;;;;9.18;4.60;;;;;;;19.73;70.64;100104.06;5036430;28;20064;-58
2021/08/06 01:02:51;;;;;;;7.85;4.95;;;;;;;19.71;70.51;100100.81;5028135;28;20049;-59
2021/08/06 01:05:26;;;;;;;7.85;4.60;;;;;;;19.71;70.66;100111.88;5033946;28;20053;-54
2021/08/06 01:08:12;;;;;;;8.65;4.50;;;;;;;19.69;70.42;100103.94;5034086;28;20069;-59
2021/08/06 01:11:14;;;;;;;8.00;4.43;;;;;;;19.68;70.03;100096.81;5026031;28;20053;-59
2021/08/06 01:13:46;;;;;;;7.28;4.10;;;;;;;19.69;70.25;100086.53;5044565;28;20049;-59
2021/08/06 01:16:16;;;;;;;8.73;5.03;;;;;;;19.72;70.13;100091.38;5032081;28;20446;-59
2021/08/06 01:18:54;;;;;;;8.65;5.10;;;;;;;19.74;69.89;100089.88;5021902;28;20057;-60
2021/08/06 01:21:28;;;;;;;7.85;4.43;;;;;;;19.79;69.75;100097.13;5020952;28;20052;-57
2021/08/06 01:23:58;;;;;;;8.77;4.68;;;;;;;19.80;69.28;100087.69;5022070;28;20061;-53
2021/08/06 01:26:26;;;;;;;8.73;4.90;;;;;;;19.78;69.17;100095.53;5047474;28;20571;-51
2021/08/06 01:28:56;;;;;;;6.85;4.35;;;;;;;19.76;68.99;100089.53;5021298;28;20049;-60
2021/08/06 01:31:28;;;;;;;6.60;4.30;;;;;;;19.73;69.23;100102.09;5047014;28;20403;-59
2021/08/06 01:34:16;;;;;;;13.00;5.18;;;;;;;19.72;69.35;100094.97;5044780;28;20128;-58
2021/08/06 01:36:44;;;;;;;5.60;3.50;;;;;;;19.72;69.66;100088.59;5034803;28;20059;-58
2021/08/06 01:39:17;;;;;;;4.95;3.40;;;;;;;19.77;69.23;100083.66;5037451;28;20518;-53
2021/08/06 01:41:56;;;;;;;5.45;3.10;;;;;;;19.83;68.84;100073.16;5037402;28;20037;-59
2021/08/06 01:44:39;;;;;;;4.65;2.88;;;;;;;19.83;69.22;100075.94;5033292;28;20096;-59
2021/08/06 01:47:21;;;;;;;4.35;3.00;;;;;;;19.77;69.52;100080.06;5034542;28;20046;-59
2021/08/06 01:50:07;;;;;;;5.78;3.17;;;;;;;19.74;69.63;100075.25;5040726;28;20071;-58
2021/08/06 01:52:41;;;;;;;5.40;3.58;;;;;;;19.66;69.83;100076.16;5054070;28;20073;-58
2021/08/06 01:55:14;;;;;;;7.60;3.90;;;;;;;19.58;69.70;100081.47;5032922;28;20041;-57
2021/08/06 01:57:49;;;;;;;5.45;3.10;;;;;;;19.53;70.00;100078.94;5033773;28;20044;-58
2021/08/06 02:00:19;;;;;;;4.65;3.15;;;;;;;19.55;70.02;100071.13;5033054;28;20037;-59
2021/08/06 02:02:58;;;;;;;5.50;3.45;;;;;;;19.61;69.70;100068.13;5017754;28;20045;-58
2021/08/06 02:05:29;;;;;;;4.50;3.08;;;;;;;19.57;69.48;100068.00;5023127;28;20107;-59
2021/08/06 02:08:04;;;;;;;5.43;3.40;;;;;;;19.56;69.72;100069.94;5031498;28;20616;-59
2021/08/06 02:10:34;;;;;;;5.20;3.30;;;;;;;19.61;69.32;100063.38;4999747;28;20458;-56
2021/08/06 02:13:04;;;;;;;7.97;3.40;;;;;;;19.59;69.25;100060.97;5032519;28;20115;-60
2021/08/06 02:15:34;;;;;;;6.18;3.15;;;;;;;19.62;69.20;100055.91;5021683;28;20038;-58
2021/08/06 02:18:02;;;;;;;6.60;3.35;;;;;;;19.61;68.97;100043.25;5034679;28;20045;-59
2021/08/06 02:20:42;;;;;;;5.28;3.17;;;;;;;19.54;69.01;100044.63;5023721;28;20045;-59
2021/08/06 02:23:13;;;;;;;5.28;3.33;;;;;;;19.53;69.19;100054.06;5034948;28;20124;-59
2021/08/06 02:25:44;;;;;;;6.38;3.15;;;;;;;19.56;69.14;100044.28;5032598;28;20045;-59
2021/08/06 02:28:11;;;;;;;6.45;3.47;;;;;;;19.51;69.05;100042.56;5033896;28;20042;-61
2021/08/06 02:30:42;;;;;;;6.40;3.38;;;;;;;19.50;69.25;100040.94;5039772;28;20120;-59
2021/08/06 02:33:11;;;;;;;5.15;3.20;;;;;;;19.54;69.19;100041.06;5016043;28;20041;-59
2021/08/06 02:35:38;;;;;;;5.10;2.90;;;;;;;19.52;69.30;100046.91;5033286;28;20041;-59
2021/08/06 02:38:06;;;;;;;5.78;3.17;;;;;;;19.54;69.01;100039.09;5023084;28;20087;-60
2021/08/06 02:40:34;;;;;;;6.05;3.10;;;;;;;19.55;69.01;100032.44;5052599;28;20443;-59
2021/08/06 02:43:03;;;;;;;7.88;3.15;;;;;;;19.55;69.00;100037.97;5056299;28;20049;-58
2021/08/06 02:45:30;;;;;;;5.32;2.97;;;;;;;19.61;68.86;100032.19;5033287;28;20050;-58
2021/08/06 02:47:58;;;;;;;4.25;2.65;;;;;;;19.59;68.62;100027.78;5023259;28;20057;-59
2021/08/06 02:50:26;;;;;;;7.38;3.17;;;;;;;19.57;68.56;100021.81;5032973;28;20412;-58
2021/08/06 02:52:53;;;;;;;5.13;2.95;;;;;;;19.49;68.90;100021.97;5032354;28;20043;-58
2021/08/06 02:55:22;;;;;;;5.25;2.97;;;;;;;19.46;69.68;100028.16;5045817;28;20073;-59
2021/08/06 02:57:50;;;;;;;3.80;2.67;;;;;;;19.43;69.91;100026.91;5033249;28;20038;-59
2021/08/06 03:00:18;;;;;;;6.00;3.10;;;;;;;19.45;70.14;100027.34;5032407;28;20551;-59
2021/08/06 03:02:45;;;;;;;4.53;2.90;;;;;;;19.45;70.32;100021.84;5032246;28;20056;-59
2021/08/06 03:05:13;;;;;;;6.10;2.90;;;;;;;19.45;70.28;100027.34;5033172;28;20103;-59
2021/08/06 03:07:46;;;;;;;6.97;3.03;;;;;;;19.47;70.40;100019.53;5033382;28;20048;-59
2021/08/06 03:10:19;;;;;;;6.07;3.00;;;;;;;19.48;70.48;100020.34;5015400;28;20149;-59
2021/08/06 03:12:48;;;;;;;3.75;2.65;;;;;;;19.46;70.66;100019.88;5033025;28;20037;-59
2021/08/06 03:15:17;;;;;;;5.63;3.20;;;;;;;19.42;71.15;100022.53;5031473;28;20049;-58
2021/08/06 03:17:45;;;;;;;6.03;3.08;;;;;;;19.45;70.38;100016.31;5045846;28;20064;-59
2021/08/06 03:20:15;;;;;;;5.40;2.85;;;;;;;19.51;70.41;100014.94;5031726;28;20079;-59
2021/08/06 03:22:47;;;;;;;3.80;2.50;;;;;;;19.51;70.29;100009.41;5032554;28;20069;-58
2021/08/06 03:25:15;;;;;;;2.58;2.13;;;;;;;19.61;68.30;100016.41;5031528;28;20412;-59
2021/08/06 03:27:43;;;;;;;2.97;2.22;;;;;;;19.66;69.50;100015.34;5032678;28;20407;-60
2021/08/06 03:30:15;;;;;;;3.83;2.47;;;;;;;19.66;69.07;100009.84;5031363;28;20515;-58
2021/08/06 03:32:43;;;;;;;4.38;2.45;;;;;;;19.75;67.89;100018.84;5031438;28;20083;-59
2021/08/06 03:35:13;;;;;;;4.82;2.17;;;;;;;19.70;69.57;100021.81;5032370;28;20045;-60
2021/08/06 03:37:43;;;;;;;2.97;1.90;;;;;;;19.68;69.97;100021.38;5031311;28;20073;-59
2021/08/06 03:40:13;;;;;;;2.92;2.17;;;;;;;19.64;70.63;100014.91;5031389;28;20049;-56
2021/08/06 03:42:41;;;;;;;4.22;2.10;;;;;;;19.57;70.94;100021.81;5031295;28;20045;-60
2021/08/06 03:45:11;;;;;;;3.80;2.20;;;;;;;19.59;70.69;100021.47;5030976;28;20045;-58
2021/08/06 03:47:39;;;;;;;3.17;2.13;;;;;;;19.62;69.44;100017.19;5031221;28;20480;-58
2021/08/06 03:50:07;;;;;;;3.08;1.85;;;;;;;19.58;69.93;100017.09;5030916;28;20488;-60
2021/08/06 03:52:36;;;;;;;2.25;2.05;;;;;;;19.50;71.71;100007.78;5031205;28;20047;-57
2021/08/06 03:55:04;;;;;;;3.72;2.40;;;;;;;19.47;72.13;100011.25;5030990;28;20046;-60
2021/08/06 03:57:33;;;;;;;2.95;1.70;;;;;;;19.44;72.74;100011.94;5031145;28;20041;-58
2021/08/06 04:00:01;;;;;;;2.97;2.03;;;;;;;19.40;73.20;100011.03;5030780;28;20124;-58
2021/08/06 04:02:31;;;;;;;2.53;1.92;;;;;;;19.38;73.38;100010.56;5032170;28;20044;-57
2021/08/06 04:05:00;;;;;;;4.63;2.30;;;;;;;19.35;73.93;100012.06;5030787;28;20045;-58
2021/08/06 04:07:27;;;;;;;2.83;2.20;;;;;;;19.29;74.12;100007.09;5044692;28;20446;-57
2021/08/06 04:09:56;;;;;;;3.40;2.28;;;;;;;19.24;74.44;100001.81;5031136;28;20045;-59
2021/08/06 04:12:24;;;;;;;2.10;1.90;;;;;;;19.23;74.68;100014.03;5031815;28;20037;-59
2021/08/06 04:14:51;;;;;;;2.38;2.00;;;;;;;19.21;74.85;100006.09;5030667;28;20084;-59
2021/08/06 04:17:19;;;;;;;3.78;2.17;;;;;;;19.22;74.72;100012.41;5031862;28;20045;-58
2021/08/06 04:19:46;;;;;;;2.28;2.08;;;;;;;19.16;74.96;100012.66;5032058;28;20041;-59
2021/08/06 04:22:14;;;;;;;4.53;3.10;;;;;;;19.12;75.27;100003.47;5032080;28;20038;-59
2021/08/06 04:24:42;;;;;;;3.10;2.30;;;;;;;19.11;75.11;100012.88;5014420;28;20072;-60
2021/08/06 04:27:09;;;;;;;3.92;2.38;;;;;;;19.12;75.18;100009.00;5030557;28;20041;-60
2021/08/06 04:29:37;;;;;;;2.90;2.25;;;;;;;19.11;75.07;100012.88;5050602;28;20087;-60
2021/08/06 04:32:05;;;;;;;5.35;2.50;;;;;;;19.12;75.12;99997.94;5033863;28;20048;-57
2021/08/06 04:34:32;;;;;;;3.45;2.55;;;;;;;19.13;74.77;100005.06;5033046;28;20465;-59
2021/08/06 04:37:00;;;;;;;2.85;1.98;;;;;;;19.13;74.70;100002.31;5035553;28;20100;-58
2021/08/06 04:39:27;;;;;;;2.70;1.92;;;;;;;19.14;74.75;100006.66;5034734;28;20373;-55
2021/08/06 04:41:55;;;;;;;1.90;1.80;;;;;;;19.13;74.95;100013.34;5034084;28;20041;-60
2021/08/06 04:44:23;;;;;;;2.20;2.00;;;;;;;19.12;74.85;100009.00;5035886;28;20047;-59
2021/08/06 04:46:51;;;;;;;7.32;2.50;;;;;;;19.12;75.33;100006.22;5038735;28;20037;-60
2021/08/06 04:49:19;;;;;;;2.72;1.95;;;;;;;19.11;75.64;100010.13;5044882;28;20136;-58
2021/08/06 04:51:47;;;;;;;2.30;2.00;;;;;;;19.11;75.83;100012.88;5034374;28;20164;-58
2021/08/06 04:54:14;;;;;;;4.65;2.20;;;;;;;19.11;76.46;100007.34;5034478;28;20042;-62
2021/08/06 04:56:42;;;;;;;2.25;1.85;;;;;;;19.10;76.75;100011.28;5016793;28;20487;-61
2021/08/06 04:59:12;;;;;;;4.65;2.05;;;;;;;19.05;76.61;100014.28;5034323;28;20052;-60
2021/08/06 05:01:40;;;;;;;3.55;2.00;;;;;;;19.02;77.17;100012.19;5053819;28;20073;-59
2021/08/06 05:04:08;;;;;;;4.18;2.13;;;;;;;19.05;76.83;100017.03;5034035;28;20034;-60
2021/08/06 05:06:35;;;;;;;4.10;2.05;;;;;;;19.06;76.73;100021.41;5046946;28;20057;-56
2021/08/06 05:09:03;;;;;;;3.33;1.73;;;;;;;19.07;76.60;100011.97;5053963;28;20136;-60
2021/08/06 05:11:31;;;;;;;2.17;1.83;;;;;;;19.07;77.01;100008.41;5059161;28;20065;-56
2021/08/06 05:13:59;;;;;;;2.03;1.60;;;;;;;19.05;77.65;100010.69;5035037;28;20087;-61
2021/08/06 05:16:29;;;;;;;3.15;1.90;;;;;;;19.02;78.07;100012.19;5034138;28;20049;-59
2021/08/06 05:18:58;;;;;;;3.60;2.00;;;;;;;19.03;78.06;100013.00;5047845;28;20041;-62
2021/08/06 05:21:25;;;;;;;3.55;2.08;;;;;;;19.03;78.29;100011.06;5034033;28;20389;-61
2021/08/06 05:23:53;;;;;;;3.22;2.25;;;;;;;19.01;78.57;100015.31;5047465;28;20037;-56
2021/08/06 05:26:21;;;;;;;3.05;2.00;;;;;;;18.96;78.60;100010.81;5033568;28;20099;-63
2021/08/06 05:28:49;;;;;;;2.67;1.80;;;;;;;18.88;79.17;100018.06;5053744;28;20491;-61
2021/08/06 05:31:19;;;;;;;3.13;1.85;;;;;;;18.91;78.88;100017.38;5053349;28;20470;-62
2021/08/06 05:33:48;;;;;;;3.50;2.08;;;;;;;18.94;78.79;100015.88;5053838;28;20151;-58
2021/08/06 05:36:16;;;;;;;3.22;1.88;;;;;;;18.96;78.98;100019.09;5034525;28;20063;-60
2021/08/06 05:38:43;;;;;;;4.72;2.13;;;;;;;18.98;79.03;100014.03;5033030;28;20068;-60
2021/08/06 05:41:11;;;;;;;2.53;2.00;;;;;;;19.01;78.65;100016.09;5033109;28;20042;-59
2021/08/06 05:43:39;;;;;;;3.80;2.20;;;;;;;19.00;78.79;100020.03;5030888;28;20033;-59
2021/08/06 05:46:06;;;;;;;2.63;1.75;;;;;;;18.98;79.07;100013.22;5028253;28;20076;-57
2021/08/06 05:48:34;;;;;;;1.70;1.60;;;;;;;18.95;79.19;100028.53;5037145;28;20755;-59
2021/08/06 05:51:02;;;;;;;1.75;1.45;;;;;;;18.96;78.55;100021.88;5037013;28;20100;-60
2021/08/06 05:53:30;;;;;;;3.85;1.85;;;;;;;19.03;76.66;100022.09;5048459;28;20400;-60
2021/08/06 05:56:01;;;;;;;5.78;1.92;;;;;;;19.11;74.47;100029.44;5036391;28;20041;-61
2021/08/06 05:58:41;;;;;;;2.38;1.55;;;;;;;19.19;75.05;100040.72;5046817;28;20041;-57
2021/08/06 06:01:09;;;;;;;4.10;1.80;;;;;;;19.24;75.36;100038.56;5043391;28;20060;-57
2021/08/06 06:03:47;;;;;;;2.60;1.88;;;;;;;19.25;74.20;100042.13;5020880;28;20460;-58
2021/08/06 06:06:23;;;;;;;3.08;2.00;;;;;;;19.28;73.47;100044.97;5044071;28;20095;-57
2021/08/06 06:08:56;;;;;;;3.60;1.67;;;;;;;19.31;75.35;100047.06;4343785;28;10000601;-60
2021/08/06 06:11:24;;;;;;;2.58;2.05;;;;;;;19.20;76.49;100047.88;5040808;28;20033;-60
2021/08/06 06:13:52;;;;;;;2.70;1.77;;;;;;;19.12;77.14;100053.16;5034557;28;20045;-60
2021/08/06 06:16:20;;;;;;;2.78;2.00;;;;;;;19.15;76.30;100046.94;5039617;28;20395;-59
2021/08/06 06:18:48;;;;;;;3.05;1.70;;;;;;;19.18;75.94;100055.69;5048850;28;20041;-58
2021/08/06 06:21:15;;;;;;;3.15;1.85;;;;;;;19.19;76.28;100058.09;5032127;28;20276;-59
2021/08/06 06:23:44;;;;;;;4.40;2.10;;;;;;;19.21;75.98;100055.81;5043555;28;20045;-57
2021/08/06 06:26:13;;;;;;;2.65;2.00;;;;;;;19.16;76.58;100059.59;5053668;28;20104;-59
2021/08/06 06:28:41;;;;;;;3.80;2.20;;;;;;;19.19;76.30;100055.34;5036953;28;20400;-60
2021/08/06 06:31:09;;;;;;;3.22;2.10;;;;;;;19.14;76.75;100061.09;5034751;28;20053;-59
2021/08/06 06:33:37;;;;;;;2.38;1.73;;;;;;;19.14;75.87;100066.63;5049833;28;20044;-58
2021/08/06 06:36:05;;;;;;;3.22;1.90;;;;;;;19.15;75.02;100069.03;5049008;28;20091;-59
2021/08/06 06:38:34;;;;;;;2.10;1.83;;;;;;;19.17;75.91;100065.94;5041841;28;20046;-62
2021/08/06 06:41:04;;;;;;;3.15;2.25;;;;;;;19.14;76.29;100066.63;5029866;28;20687;-55
2021/08/06 06:43:34;;;;;;;4.88;2.22;;;;;;;19.22;75.71;100075.94;5028754;28;20041;-58
2021/08/06 06:46:03;;;;;;;2.92;2.30;;;;;;;19.27;75.54;100072.97;5041975;28;20114;-57
2021/08/06 06:48:33;;;;;;;3.03;1.90;;;;;;;19.31;75.53;100071.09;5033850;28;20068;-60
2021/08/06 06:51:05;;;;;;;4.75;2.50;;;;;;;19.29;76.05;100076.16;5031692;28;20070;-60
2021/08/06 06:53:33;;;;;;;4.97;2.40;;;;;;;19.31;75.56;100084.91;5035421;28;20396;-59
2021/08/06 06:56:01;;;;;;;8.88;2.78;;;;;;;19.36;75.22;100073.63;5047266;28;20041;-56
2021/08/06 06:58:30;;;;;;;5.13;2.33;;;;;;;19.34;74.81;100074.00;5045044;28;20045;-60
2021/08/06 07:00:58;;;;;;;4.55;2.72;;;;;;;19.46;74.90;100073.19;5040014;28;20072;-61
2021/08/06 07:03:26;;;;;;;8.48;2.88;;;;;;;19.36;75.70;100080.00;5047008;28;20115;-61
2021/08/06 07:05:54;;;;;;;10.55;3.50;;;;;;;19.32;74.57;100092.06;5038170;28;20052;-60
2021/08/06 07:08:23;;;;;;;9.68;3.08;;;;;;;19.30;75.58;100091.59;5047454;28;20074;-60
2021/08/06 07:10:52;;;;;;;13.27;3.83;;;;;;;19.32;74.24;100086.53;5037246;28;20041;-59
2021/08/06 07:13:20;;;;;;;8.20;2.50;;;;;;;19.35;74.57;100091.38;5034871;28;20132;-59
2021/08/06 07:15:49;;;;;;;5.50;2.65;;;;;;;19.41;73.80;100092.78;5045615;28;20061;-56
2021/08/06 07:18:17;;;;;;;5.05;2.70;;;;;;;19.38;74.52;100093.44;5035215;28;20128;-54
2021/08/06 07:20:45;;;;;;;8.88;3.45;;;;;;;19.34;74.87;100096.09;5043228;28;20128;-56
2021/08/06 07:23:13;;;;;;;17.23;5.25;;;;;;;19.34;75.03;100093.34;5046534;28;20052;-55
2021/08/06 07:25:41;;;;;;;5.72;2.88;;;;;;;19.31;75.08;100094.03;5028641;28;20055;-58
2021/08/06 07:28:11;;;;;;;13.80;4.75;;;;;;;19.40;73.99;100101.38;5039558;28;20048;-56
2021/08/06 07:30:39;;;;;;;17.45;5.18;;;;;;;19.37;73.34;100102.88;5050244;28;20037;-57
2021/08/06 07:33:07;;;;;;;16.40;5.38;;;;;;;19.39;73.32;100108.06;5043815;28;20041;-55
2021/08/06 07:35:35;;;;;;;21.95;6.40;;;;;;;19.60;72.97;100105.97;5046615;28;20041;-57
2021/08/06 07:38:04;;;;;;;16.08;5.25;;;;;;;19.61;72.38;100101.28;5034675;28;20593;-55
2021/08/06 07:40:33;;;;;;;7.97;3.42;;;;;;;19.52;73.74;100109.69;5031200;28;20052;-56
2021/08/06 07:43:01;;;;;;;16.23;4.70;;;;;;;19.46;73.04;100111.88;5031974;28;20045;-56
2021/08/06 07:45:29;;;;;;;8.68;3.17;;;;;;;19.49;73.65;100111.16;5031285;28;20045;-54
2021/08/06 07:47:59;;;;;;;12.35;3.85;;;;;;;19.56;73.20;100113.38;5030896;28;20041;-54
2021/08/06 07:50:28;;;;;;;7.60;3.33;;;;;;;19.61;73.18;100112.34;5030378;28;20037;-53
2021/08/06 07:52:56;;;;;;;9.30;3.65;;;;;;;19.52;73.17;100112.44;5031425;28;20516;-57
2021/08/06 07:55:25;;;;;;;13.25;3.63;;;;;;;19.53;73.20;100117.63;5030991;28;20041;-53
2021/08/06 07:57:54;;;;;;;10.98;3.90;;;;;;;19.59;72.66;100127.28;5042221;28;20037;-57
2021/08/06 08:00:22;;;;;;;6.97;3.28;;;;;;;19.50;73.22;100131.31;5049457;28;20137;-53
2021/08/06 08:02:50;;;;;;;8.65;3.17;;;;;;;19.42;73.17;100124.75;5030889;28;20076;-53
2021/08/06 08:05:24;;;;;;;8.05;3.00;;;;;;;19.41;73.41;100128.69;5044384;28;20050;-53
2021/08/06 08:07:58;;;;;;;5.07;2.55;;;;;;;19.50;72.42;100128.56;5031057;28;20041;-58
2021/08/06 08:10:28;;;;;;;9.35;3.35;;;;;;;19.50;71.74;100132.13;5013265;28;20099;-56
2021/08/06 08:13:16;;;;;;;6.63;3.00;;;;;;;19.56;71.60;100133.50;5041716;28;20037;-55
2021/08/06 08:15:47;;;;;;;7.57;3.00;;;;;;;19.51;72.00;100122.69;5036708;28;20048;-56
2021/08/06 08:18:15;;;;;;;7.20;3.20;;;;;;;19.57;71.64;100126.03;5050572;28;20037;-56
2021/08/06 08:20:43;;;;;;;9.27;3.42;;;;;;;19.53;72.08;100130.63;5047384;28;20112;-55
2021/08/06 08:23:11;;;;;;;6.75;3.13;;;;;;;19.56;72.19;100122.47;5031007;28;20037;-56
2021/08/06 08:25:39;;;;;;;9.95;2.90;;;;;;;19.71;71.52;100125.69;5030612;28;20053;-58
2021/08/06 08:28:07;;;;;;;8.82;2.97;;;;;;;19.70;72.13;100121.31;5032064;28;20041;-57
2021/08/06 08:30:37;;;;;;;6.43;2.50;;;;;;;19.78;71.27;100117.63;5030460;28;20041;-56
2021/08/06 08:33:07;;;;;;;6.40;2.97;;;;;;;19.84;71.02;100127.28;5030455;28;20045;-54
2021/08/06 08:35:35;;;;;;;6.47;2.97;;;;;;;19.81;70.76;100128.00;5030167;28;20073;-58
2021/08/06 08:38:03;;;;;;;8.75;2.78;;;;;;;19.84;70.69;100126.50;5034121;28;20041;-58
2021/08/06 08:40:31;;;;;;;6.78;2.72;;;;;;;19.89;70.71;100129.84;5030615;28;20049;-58
2021/08/06 08:42:59;;;;;;;6.75;2.80;;;;;;;19.94;70.23;100128.78;5031961;28;20049;-59
2021/08/06 08:45:27;;;;;;;4.85;2.30;;;;;;;20.07;70.45;100126.81;5030769;28;20099;-58
2021/08/06 08:47:54;;;;;;;6.15;2.53;;;;;;;20.02;69.23;100129.81;5030625;28;20042;-58
2021/08/06 08:50:22;;;;;;;5.82;2.88;;;;;;;19.89;68.90;100124.31;5029983;28;20041;-58
2021/08/06 08:52:50;;;;;;;6.53;2.70;;;;;;;19.81;69.46;100129.97;5030719;28;20041;-57
2021/08/06 08:55:18;;;;;;;7.25;3.10;;;;;;;19.75;70.10;100118.34;5030042;28;20124;-57
2021/08/06 08:57:47;;;;;;;8.07;3.00;;;;;;;19.79;70.62;100119.22;5030155;28;20080;-58
2021/08/06 09:00:16;;;;;;;5.57;3.05;;;;;;;19.85;70.49;100119.81;5030411;28;20049;-54
2021/08/06 09:02:47;;;;;;;5.63;2.88;;;;;;;19.89;70.55;100124.31;5014025;28;20053;-59
2021/08/06 09:05:20;;;;;;;7.95;3.13;;;;;;;20.13;68.92;100128.16;5030118;28;20057;-56
2021/08/06 09:07:52;;;;;;;8.10;2.95;;;;;;;20.12;68.80;100123.78;5030523;28;20048;-53
2021/08/06 09:10:30;;;;;;;5.93;2.72;;;;;;;20.21;69.39;100122.50;5044248;28;20060;-59
2021/08/06 09:13:22;;;;;;;6.97;2.65;;;;;;;20.10;68.20;100124.13;5031777;28;20048;-56
2021/08/06 09:16:00;;;;;;;4.63;2.38;;;;;;;20.02;68.70;100116.78;5035644;28;20130;-58
2021/08/06 09:18:37;;;;;;;5.55;2.83;;;;;;;20.03;68.46;100125.88;5037013;28;20096;-57
2021/08/06 09:21:16;;;;;;;5.40;2.65;;;;;;;19.95;69.00;100122.91;5033426;28;20095;-60
2021/08/06 09:23:56;;;;;;;5.65;2.65;;;;;;;20.02;69.20;100127.06;5034969;28;20049;-60
2021/08/06 09:26:27;;;;;;;6.47;2.50;;;;;;;20.05;69.25;100129.91;5042949;28;20045;-58
2021/08/06 09:29:08;;;;;;;5.00;2.78;;;;;;;20.04;69.47;100130.28;5040374;28;20056;-59
2021/08/06 09:31:39;;;;;;;6.80;2.67;;;;;;;20.13;69.22;100128.16;5034335;28;20052;-58
2021/08/06 09:34:09;;;;;;;5.50;2.80;;;;;;;20.20;69.71;100133.91;5034481;28;20050;-58
2021/08/06 09:36:37;;;;;;;7.40;3.03;;;;;;;20.28;68.17;100130.22;5034597;28;20046;-58
2021/08/06 09:39:16;;;;;;;6.82;2.60;;;;;;;20.24;68.90;100134.81;5034933;28;20045;-58
2021/08/06 09:42:06;;;;;;;5.38;2.15;;;;;;;20.33;68.54;100143.78;5041635;28;20029;-57
2021/08/06 09:44:34;;;;;;;7.43;3.10;;;;;;;20.33;67.47;100126.41;5041366;28;20128;-58
2021/08/06 09:47:20;;;;;;;8.45;2.70;;;;;;;20.21;67.22;100125.25;5036430;28;20052;-59
2021/08/06 09:49:49;;;;;;;;;;;;;;;20.21;69.30;100130.78;5040412;28;20041;-55
2021/08/06 09:52:17;;;;;;;6.63;2.90;;;;;;;20.24;67.94;100140.34;5034474;28;19921;-59
2021/08/06 09:54:49;;;;;;;9.50;3.15;;;;;;;20.18;67.31;100136.25;5034390;28;20045;-57
2021/08/06 09:57:17;;;;;;;6.28;2.58;;;;;;;20.18;67.05;100142.56;5034225;28;20486;-58
2021/08/06 09:59:51;;;;;;;4.47;1.98;;;;;;;20.21;67.12;100147.41;5033969;28;20044;-58
2021/08/06 10:02:28;;;;;;;5.97;2.83;;;;;;;20.28;67.02;100141.28;5034187;28;20045;-59
2021/08/06 10:05:03;;;;;;;7.97;2.85;;;;;;;20.42;66.38;100136.16;5034326;28;20060;-55
2021/08/06 10:07:35;;;;;;;4.75;2.30;;;;;;;20.47;66.22;100132.34;5040447;28;20037;-60
2021/08/06 10:10:06;;;;;;;7.43;2.42;;;;;;;20.54;66.06;100137.25;5040073;28;20128;-59
2021/08/06 10:12:34;;;;;;;5.68;2.30;;;;;;;20.53;66.86;100139.22;5033960;28;20496;-57
2021/08/06 10:15:03;;;;;;;5.53;2.47;;;;;;;20.64;64.61;100134.81;5033155;28;20060;-57
2021/08/06 10:17:31;;;;;;;5.80;2.60;;;;;;;20.60;65.15;100133.13;5032513;28;20118;-59
2021/08/06 10:19:59;;;;;;;6.05;2.60;;;;;;;20.63;66.23;100133.19;5032576;28;20049;-56
2021/08/06 10:22:26;;;;;;;31.15;12.00;;;;;;;20.59;65.82;100131.50;5034005;28;20139;-58
2021/08/06 10:24:55;;;;;;;31.23;13.27;;;;;;;20.58;64.97;100138.19;5033913;28;20041;-55
2021/08/06 10:27:24;;;;;;;50.65;22.77;;;;;;;20.54;65.51;100142.78;5033618;28;20041;-57
2021/08/06 10:30:06;;;;;;;88.88;34.97;;;;;;;20.47;67.10;100148.09;5032898;28;20029;-56
2021/08/06 10:32:35;;;;;;;7.47;3.42;;;;;;;20.29;65.21;100153.94;5031583;28;20042;-57
2021/08/06 10:35:03;;;;;;;13.73;6.80;;;;;;;20.18;66.32;100152.84;5033581;28;20041;-55
2021/08/06 10:37:48;;;;;;;5.80;2.72;;;;;;;20.07;67.39;100149.72;5033154;28;20065;-57
2021/08/06 10:40:39;;;;;;;15.35;6.72;;;;;;;20.02;67.34;100149.19;5033439;28;20056;-56
2021/08/06 10:43:10;;;;;;;8.65;4.43;;;;;;;20.02;67.25;100149.19;5030192;28;20053;-57
2021/08/06 10:45:47;;;;;;;10.52;4.93;;;;;;;20.03;67.57;100150.78;5032190;28;20480;-56
2021/08/06 10:48:44;;;;;;;6.63;3.22;;;;;;;20.04;67.58;100144.91;5033319;28;20053;-53
2021/08/06 10:51:19;;;;;;;14.45;5.80;;;;;;;20.10;67.35;100143.50;5033206;28;20045;-59
2021/08/06 10:53:59;;;;;;;90.60;34.50;;;;;;;20.17;67.26;100140.13;5033234;28;20053;-57
2021/08/06 10:56:31;;;;;;;48.40;18.67;;;;;;;20.28;67.41;100146.00;5033090;28;20523;-58
2021/08/06 10:59:05;;;;;;;7.13;3.35;;;;;;;20.32;65.69;100142.16;5037363;28;20469;-55
2021/08/06 11:01:34;;;;;;;54.60;21.20;;;;;;;20.38;65.08;100146.31;5039851;28;20186;-54
2021/08/06 11:04:15;;;;;;;6.82;2.55;;;;;;;20.45;63.32;100133.84;5032813;28;20538;-57
2021/08/06 11:06:47;;;;;;;46.75;20.15;;;;;;;20.50;65.58;100139.13;5032968;28;20057;-54
2021/08/06 11:11:59;;;;;;;27.15;9.75;;;;;;;20.63;63.47;100129.63;5038646;28;20057;-58
2021/08/06 11:14:29;;;;;;;18.95;6.88;;;;;;;20.73;63.09;100129.13;5039808;28;20037;-56
2021/08/06 11:17:03;;;;;;;6.47;2.78;;;;;;;20.72;63.03;100135.81;5038697;28;20514;-55
2021/08/06 11:19:36;;;;;;;7.18;3.65;;;;;;;20.66;62.09;100128.13;5039678;28;20395;-59
2021/08/06 11:22:19;;;;;;;6.72;2.88;;;;;;;20.53;61.14;100130.91;5038926;28;20120;-56
2021/08/06 11:24:54;;;;;;;13.02;5.35;;;;;;;20.56;62.61;100121.13;5031702;28;20041;-58
2021/08/06 11:27:33;;;;;;;29.40;12.27;;;;;;;20.66;63.14;100128.13;5032356;28;20045;-58
2021/08/06 11:30:06;;;;;;;23.77;9.32;;;;;;;20.80;63.77;100122.97;5031236;28;20048;-56
2021/08/06 11:33:03;;;;;;;26.88;12.60;;;;;;;20.84;63.53;100124.69;5032277;28;20045;-57
2021/08/06 11:35:37;;;;;;;9.15;3.78;;;;;;;20.84;62.31;100130.22;5031414;28;20056;-54
2021/08/06 11:38:10;;;;;;;40.58;17.27;;;;;;;20.99;62.00;100131.41;5032108;28;20054;-57
2021/08/06 11:40:40;;;;;;;12.48;5.05;;;;;;;20.87;60.80;100138.97;5032432;28;20053;-55
2021/08/06 11:43:15;;;;;;;16.63;6.47;;;;;;;20.73;61.75;100145.72;5031714;28;20128;-57